Time,TemperatureF,DewpointF,PressureIn,WindDirection,WindDirectionDegrees,WindSpeedMPH,WindSpeedGustMPH,Humidity,HourlyPrecipIn,Conditions,Clouds,dailyrainin,SoftwareType,DateUTC
2013-03-10 00:07:00,33.8,32.8,30.17,NNE,22,0.0,-999.0,96,-99.99,,,0.00,Acu-Link.com,2013-03-10 05:07:00,
2013-03-10 00:22:00,33.8,32.5,30.17,NNE,22,0.0,-999.0,95,-99.99,,,0.00,Acu-Link.com,2013-03-10 05:22:00,
2013-03-10 00:37:00,33.1,31.6,30.18,NNE,22,0.0,-999.0,94,-99.99,,,0.00,Acu-Link.com,2013-03-10 05:37:00,
2013-03-10 00:53:00,32.5,31.2,30.18,NNE,22,0.0,-999.0,95,-99.99,,,0.00,Acu-Link.com,2013-03-10 05:53:00,
2013-03-10 01:08:00,32.4,31.4,30.19,NNE,22,0.0,-999.0,96,-99.99,,,0.00,Acu-Link.com,2013-03-10 06:08:00,
2013-03-10 01:23:00,32.0,31.0,30.19,NNE,22,0.0,-999.0,96,-99.99,,,0.00,Acu-Link.com,2013-03-10 06:23:00,
2013-03-10 01:39:00,31.8,30.8,30.18,NNE,22,0.0,-999.0,96,-99.99,,,0.00,Acu-Link.com,2013-03-10 06:39:00,
2013-03-10 01:54:00,31.6,30.8,30.17,NNE,22,0.0,-999.0,97,-99.99,,,0.00,Acu-Link.com,2013-03-10 06:54:00,
2013-03-10 03:09:00,31.5,31.0,30.17,NNE,22,0.0,-999.0,98,-99.99,,,0.00,Acu-Link.com,2013-03-10 07:09:00,
2013-03-10 03:24:00,31.1,30.9,30.17,NNE,22,0.0,-999.0,99,-99.99,,,0.00,Acu-Link.com,2013-03-10 07:24:00,
2013-03-10 03:40:00,31.1,30.9,30.16,NNE,22,0.0,-999.0,99,-99.99,,,0.00,Acu-Link.com,2013-03-10 07:40:00,
2013-03-10 03:55:00,30.9,30.7,30.15,NNE,22,0.0,-999.0,99,-99.99,,,0.00,Acu-Link.com,2013-03-10 07:55:00,
2013-03-10 04:10:00,30.6,30.4,30.15,NNE,22,0.0,-999.0,99,-99.99,,,0.00,Acu-Link.com,2013-03-10 08:10:00,
2013-03-10 04:25:00,30.6,30.4,30.15,NNE,22,0.0,-999.0,99,-99.99,,,0.00,Acu-Link.com,2013-03-10 08:25:00,
2013-03-10 04:40:00,30.4,30.2,30.14,NNE,22,0.0,-999.0,99,-99.99,,,0.00,Acu-Link.com,2013-03-10 08:40:00,
2013-03-10 04:56:00,30.2,30.0,30.14,NNE,22,0.0,-999.0,99,-99.99,,,0.00,Acu-Link.com,2013-03-10 08:56:00,
2013-03-10 05:11:00,30.2,30.0,30.15,NNE,22,0.0,-999.0,99,-99.99,,,0.00,Acu-Link.com,2013-03-10 09:11:00,
2013-03-10 05:26:00,30.0,29.8,30.15,NNE,22,0.0,-999.0,99,-99.99,,,0.00,Acu-Link.com,2013-03-10 09:26:00,
2013-03-10 05:42:00,29.8,29.6,30.15,NNE,22,0.0,-999.0,99,-99.99,,,0.00,Acu-Link.com,2013-03-10 09:42:00,
2013-03-10 05:57:00,29.7,29.5,30.16,NNE,22,0.0,-999.0,99,-99.99,,,0.00,Acu-Link.com,2013-03-10 09:57:00,
2013-03-10 06:12:00,29.8,29.6,30.16,NNE,22,0.0,-999.0,99,-99.99,,,0.00,Acu-Link.com,2013-03-10 10:12:00,
2013-03-10 06:28:00,29.7,29.5,30.17,NNE,22,0.0,-999.0,99,-99.99,,,0.00,Acu-Link.com,2013-03-10 10:28:00,
2013-03-10 06:43:00,30.2,30.0,30.17,NNE,22,0.0,-999.0,99,-99.99,,,0.00,Acu-Link.com,2013-03-10 10:43:00,
2013-03-10 06:58:00,30.7,30.5,30.17,NNE,22,0.0,-999.0,99,-99.99,,,0.00,Acu-Link.com,2013-03-10 10:58:00,
2013-03-10 07:13:00,29.8,29.6,30.18,NNE,22,0.0,-999.0,99,-99.99,,,0.00,Acu-Link.com,2013-03-10 11:13:00,
2013-03-10 07:28:00,29.7,29.5,30.18,NNE,22,0.0,-999.0,99,-99.99,,,0.00,Acu-Link.com,2013-03-10 11:28:00,
2013-03-10 07:44:00,29.3,29.1,30.17,NNE,22,0.0,-999.0,99,-99.99,,,0.00,Acu-Link.com,2013-03-10 11:44:00,
2013-03-10 07:59:00,29.3,29.1,30.18,NNE,22,0.0,-999.0,99,-99.99,,,0.00,Acu-Link.com,2013-03-10 11:59:00,
2013-03-10 08:14:00,29.7,29.5,30.18,NNE,22,0.0,-999.0,99,-99.99,,,0.00,Acu-Link.com,2013-03-10 12:14:00,
2013-03-10 08:30:00,31.6,31.4,30.18,NNE,22,0.0,-999.0,99,-99.99,,,0.00,Acu-Link.com,2013-03-10 12:30:00,
2013-03-10 08:45:00,35.4,35.1,30.18,NE,45,3.2,-999.0,99,-99.99,,,0.00,Acu-Link.com,2013-03-10 12:45:00,
2013-03-10 09:00:00,38.7,35.7,30.18,NE,45,0.0,-999.0,89,-99.99,,,0.00,Acu-Link.com,2013-03-10 13:00:00,
2013-03-10 09:16:00,41.4,35.1,30.18,ENE,67,0.0,-999.0,78,-99.99,,,0.00,Acu-Link.com,2013-03-10 13:16:00,
2013-03-10 09:31:00,44.1,34.6,30.18,ENE,67,0.0,-999.0,69,-99.99,,,0.00,Acu-Link.com,2013-03-10 13:31:00,
2013-03-10 09:46:00,46.6,33.9,30.19,NE,45,2.2,-999.0,61,-99.99,,,0.00,Acu-Link.com,2013-03-10 13:46:00,
2013-03-10 10:01:00,48.7,32.8,30.20,ENE,67,3.7,-999.0,54,-99.99,,,0.00,Acu-Link.com,2013-03-10 14:01:00,
2013-03-10 10:17:00,54.3,31.1,30.19,NE,45,2.7,-999.0,41,-99.99,,,0.00,Acu-Link.com,2013-03-10 14:17:00,
2013-03-10 10:32:00,57.7,30.2,30.20,NE,45,3.2,-999.0,35,-99.99,,,0.00,Acu-Link.com,2013-03-10 14:32:00,
2013-03-10 10:47:00,61.3,32.7,30.20,ESE,112,0.0,-999.0,34,-99.99,,,0.00,Acu-Link.com,2013-03-10 14:47:00,
2013-03-10 11:02:00,63.9,30.2,30.20,West,270,0.0,-999.0,28,-99.99,,,0.00,Acu-Link.com,2013-03-10 15:02:00,
2013-03-10 11:17:00,61.9,28.4,30.20,ENE,67,3.7,-999.0,28,-99.99,,,0.00,Acu-Link.com,2013-03-10 15:17:00,
2013-03-10 11:32:00,64.8,30.9,30.19,NE,45,0.0,-999.0,28,-99.99,,,0.00,Acu-Link.com,2013-03-10 15:32:00,
2013-03-10 11:48:00,65.1,26.4,30.18,East,90,4.7,-999.0,23,-99.99,,,0.00,Acu-Link.com,2013-03-10 15:48:00,
2013-03-10 12:03:00,65.3,26.6,30.17,ENE,67,3.2,-999.0,23,-99.99,,,0.00,Acu-Link.com,2013-03-10 16:03:00,
2013-03-10 12:18:00,66.6,28.7,30.16,NE,45,3.7,-999.0,24,-99.99,,,0.00,Acu-Link.com,2013-03-10 16:18:00,
2013-03-10 12:33:00,68.7,28.3,30.17,NE,45,2.7,-999.0,22,-99.99,,,0.00,Acu-Link.com,2013-03-10 16:33:00,
2013-03-10 12:48:00,66.9,28.9,30.16,NE,45,3.2,-999.0,24,-99.99,,,0.00,Acu-Link.com,2013-03-10 16:48:00,
2013-03-10 13:04:00,65.5,28.7,30.15,ENE,67,6.8,-999.0,25,-99.99,,,0.00,Acu-Link.com,2013-03-10 17:04:00,
2013-03-10 13:19:00,63.0,27.6,30.15,East,90,4.7,-999.0,26,-99.99,,,0.00,Acu-Link.com,2013-03-10 17:19:00,
2013-03-10 13:34:00,63.7,28.2,30.14,NE,45,4.7,-999.0,26,-99.99,,,0.00,Acu-Link.com,2013-03-10 17:34:00,
2013-03-10 13:49:00,63.9,28.3,30.13,NE,45,7.8,-999.0,26,-99.99,,,0.00,Acu-Link.com,2013-03-10 17:49:00,
2013-03-10 14:20:00,64.0,29.4,30.12,WNW,292,3.7,-999.0,27,-99.99,,,0.00,Acu-Link.com,2013-03-10 18:20:00,
2013-03-10 14:35:00,64.4,26.8,30.12,NNE,22,2.2,-999.0,24,-99.99,,,0.00,Acu-Link.com,2013-03-10 18:35:00,
2013-03-10 14:50:00,64.2,25.6,30.11,ENE,67,2.7,-999.0,23,-99.99,,,0.00,Acu-Link.com,2013-03-10 18:50:00,
2013-03-10 15:05:00,64.9,29.2,30.11,ESE,112,3.7,-999.0,26,-99.99,,,0.00,Acu-Link.com,2013-03-10 19:05:00,
2013-03-10 15:20:00,65.1,25.3,30.10,ENE,67,5.3,-999.0,22,-99.99,,,0.00,Acu-Link.com,2013-03-10 19:20:00,
2013-03-10 15:35:00,65.5,24.5,30.09,ESE,112,4.7,-999.0,21,-99.99,,,0.00,Acu-Link.com,2013-03-10 19:35:00,
2013-03-10 15:51:00,65.7,23.5,30.09,ENE,67,4.7,-999.0,20,-99.99,,,0.00,Acu-Link.com,2013-03-10 19:51:00,
2013-03-10 16:21:00,66.0,26.1,30.08,NNE,22,0.0,-999.0,22,-99.99,,,0.00,Acu-Link.com,2013-03-10 20:21:00,
2013-03-10 16:36:00,66.6,24.3,30.07,East,90,3.7,-999.0,20,-99.99,,,0.00,Acu-Link.com,2013-03-10 20:36:00,
2013-03-10 16:52:00,66.2,22.7,30.08,NE,45,4.7,-999.0,19,-99.99,,,0.00,Acu-Link.com,2013-03-10 20:52:00,
2013-03-10 17:07:00,66.7,23.1,30.07,NE,45,4.7,-999.0,19,-99.99,,,0.00,Acu-Link.com,2013-03-10 21:07:00,
2013-03-10 17:22:00,66.6,23.1,30.07,ENE,67,4.2,-999.0,19,-99.99,,,0.00,Acu-Link.com,2013-03-10 21:22:00,
2013-03-10 17:37:00,66.7,21.9,30.07,East,90,5.3,-999.0,18,-99.99,,,0.00,Acu-Link.com,2013-03-10 21:37:00,
2013-03-10 17:52:00,66.2,21.5,30.08,NE,45,5.8,-999.0,18,-99.99,,,0.00,Acu-Link.com,2013-03-10 21:52:00,
2013-03-10 18:07:00,66.0,21.3,30.07,ESE,112,5.8,-999.0,18,-99.99,,,0.00,Acu-Link.com,2013-03-10 22:07:00,
2013-03-10 18:23:00,65.8,22.4,30.07,ESE,112,7.8,-999.0,19,-99.99,,,0.00,Acu-Link.com,2013-03-10 22:23:00,
2013-03-10 18:38:00,64.8,21.6,30.07,ENE,67,6.3,-999.0,19,-99.99,,,0.00,Acu-Link.com,2013-03-10 22:38:00,
2013-03-10 18:53:00,63.1,22.5,30.08,ESE,112,0.0,-999.0,21,-99.99,,,0.00,Acu-Link.com,2013-03-10 22:53:00,
2013-03-10 19:08:00,61.7,22.5,30.08,NE,45,4.2,-999.0,22,-99.99,,,0.00,Acu-Link.com,2013-03-10 23:08:00,
2013-03-10 19:24:00,59.4,23.6,30.08,ESE,112,0.0,-999.0,25,-99.99,,,0.00,Acu-Link.com,2013-03-10 23:24:00,
2013-03-10 19:39:00,56.1,22.6,30.10,South,180,0.0,-999.0,27,-99.99,,,0.00,Acu-Link.com,2013-03-10 23:39:00,
2013-03-10 19:54:00,53.4,25.0,30.09,South,180,0.0,-999.0,33,-99.99,,,0.00,Acu-Link.com,2013-03-10 23:54:00,
2013-03-10 20:10:00,51.4,26.0,30.09,NE,45,0.0,-999.0,37,-99.99,,,0.00,Acu-Link.com,2013-03-11 00:10:00,
2013-03-10 20:25:00,49.8,25.9,30.08,NE,45,0.0,-999.0,39,-99.99,,,0.00,Acu-Link.com,2013-03-11 00:25:00,
2013-03-10 20:40:00,48.7,25.5,30.09,NE,45,0.0,-999.0,40,-99.99,,,0.00,Acu-Link.com,2013-03-11 00:40:00,
2013-03-10 20:56:00,47.7,25.2,30.08,NE,45,0.0,-999.0,41,-99.99,,,0.00,Acu-Link.com,2013-03-11 00:56:00,
2013-03-10 21:11:00,46.6,24.8,30.09,NE,45,0.0,-999.0,42,-99.99,,,0.00,Acu-Link.com,2013-03-11 01:11:00,
2013-03-10 21:26:00,45.7,26.1,30.09,NE,45,0.0,-999.0,46,-99.99,,,0.00,Acu-Link.com,2013-03-11 01:26:00,
2013-03-10 21:41:00,45.1,25.6,30.10,NE,45,0.0,-999.0,46,-99.99,,,0.00,Acu-Link.com,2013-03-11 01:41:00,
2013-03-10 21:57:00,44.6,26.6,30.09,NE,45,0.0,-999.0,49,-99.99,,,0.00,Acu-Link.com,2013-03-11 01:57:00,
2013-03-10 22:12:00,43.9,27.9,30.09,NE,45,0.0,-999.0,53,-99.99,,,0.00,Acu-Link.com,2013-03-11 02:12:00,
2013-03-10 22:27:00,43.2,28.1,30.10,NE,45,0.0,-999.0,55,-99.99,,,0.00,Acu-Link.com,2013-03-11 02:27:00,
2013-03-10 22:43:00,44.1,29.0,30.11,NE,45,0.0,-999.0,55,-99.99,,,0.00,Acu-Link.com,2013-03-11 02:43:00,
2013-03-10 22:58:00,44.2,28.6,30.11,NE,45,0.0,-999.0,54,-99.99,,,0.00,Acu-Link.com,2013-03-11 02:58:00,
2013-03-10 23:13:00,46.4,28.3,30.11,ENE,67,0.0,-999.0,49,-99.99,,,0.00,Acu-Link.com,2013-03-11 03:13:00,
2013-03-10 23:29:00,47.7,27.4,30.12,ENE,67,3.7,-999.0,45,-99.99,,,0.00,Acu-Link.com,2013-03-11 03:29:00,
2013-03-10 23:44:00,49.3,26.6,30.11,ENE,67,0.0,-999.0,41,-99.99,,,0.00,Acu-Link.com,2013-03-11 03:44:00,
2013-03-10 23:59:00,49.8,26.5,30.11,East,90,0.0,-999.0,40,-99.99,,,0.00,Acu-Link.com,2013-03-11 03:59:00,